sensor_id;sensor_type;location;lat;lon;timestamp;pressure;altitude;pressure_sealevel;temperature
65765;BMP180;52915;53.718;19.946;2023-04-25T00:15:25;99080.80;;;12.60
65765;BMP180;52915;53.718;19.946;2023-04-25T00:46:39;99068.20;;;12.60
65765;BMP180;52915;53.718;19.946;2023-04-25T00:51:44;99063.40;;;12.50
65765;BMP180;52915;53.718;19.946;2023-04-25T00:57:25;99061.60;;;12.56
65765;BMP180;52915;53.718;19.946;2023-04-25T01:02:29;99066.20;;;12.60
65765;BMP180;52915;53.718;19.946;2023-04-25T01:07:34;99060.20;;;12.50
65765;BMP180;52915;53.718;19.946;2023-04-25T01:12:38;99064.40;;;12.50
65765;BMP180;52915;53.718;19.946;2023-04-25T01:17:42;99064.00;;;12.44
65765;BMP180;52915;53.718;19.946;2023-04-25T01:22:47;99062.40;;;12.40
65765;BMP180;52915;53.718;19.946;2023-04-25T01:28:42;99069.40;;;12.40
65765;BMP180;52915;53.718;19.946;2023-04-25T01:33:47;99063.60;;;12.40
65765;BMP180;52915;53.718;19.946;2023-04-25T01:38:51;99064.40;;;12.40
65765;BMP180;52915;53.718;19.946;2023-04-25T01:43:56;99059.80;;;12.40
65765;BMP180;52915;53.718;19.946;2023-04-25T01:53:25;99060.60;;;12.54
65765;BMP180;52915;53.718;19.946;2023-04-25T01:58:30;99056.20;;;12.50
65765;BMP180;52915;53.718;19.946;2023-04-25T02:03:34;99059.20;;;12.58
65765;BMP180;52915;53.718;19.946;2023-04-25T02:08:39;99050.20;;;12.60
65765;BMP180;52915;53.718;19.946;2023-04-25T02:13:52;99039.40;;;12.60
65765;BMP180;52915;53.718;19.946;2023-04-25T02:18:55;99040.00;;;12.60
65765;BMP180;52915;53.718;19.946;2023-04-25T02:23:59;99041.60;;;12.60
65765;BMP180;52915;53.718;19.946;2023-04-25T02:29:03;99048.80;;;12.60
65765;BMP180;52915;53.718;19.946;2023-04-25T02:34:07;99043.20;;;12.50
65765;BMP180;52915;53.718;19.946;2023-04-25T02:39:10;99029.40;;;12.50
65765;BMP180;52915;53.718;19.946;2023-04-25T02:44:27;99036.40;;;12.50
65765;BMP180;52915;53.718;19.946;2023-04-25T02:49:30;99028.20;;;12.50
65765;BMP180;52915;53.718;19.946;2023-04-25T02:54:39;99032.00;;;12.50
65765;BMP180;52915;53.718;19.946;2023-04-25T02:59:43;99030.80;;;12.40
65765;BMP180;52915;53.718;19.946;2023-04-25T03:04:53;99027.00;;;12.38
65765;BMP180;52915;53.718;19.946;2023-04-25T03:10:47;99034.40;;;12.30
65765;BMP180;52915;53.718;19.946;2023-04-25T03:31:12;99034.20;;;12.30
65765;BMP180;52915;53.718;19.946;2023-04-25T03:36:16;99032.60;;;12.30
65765;BMP180;52915;53.718;19.946;2023-04-25T03:41:35;99039.60;;;12.30
65765;BMP180;52915;53.718;19.946;2023-04-25T03:46:38;99036.40;;;12.20
65765;BMP180;52915;53.718;19.946;2023-04-25T03:51:42;99040.80;;;12.30
65765;BMP180;52915;53.718;19.946;2023-04-25T03:56:46;99041.40;;;12.22
65765;BMP180;52915;53.718;19.946;2023-04-25T04:01:50;99044.20;;;12.20
65765;BMP180;52915;53.718;19.946;2023-04-25T04:06:53;99049.40;;;12.22
65765;BMP180;52915;53.718;19.946;2023-04-25T04:12:04;99049.80;;;12.20
65765;BMP180;52915;53.718;19.946;2023-04-25T04:17:07;99050.60;;;12.20
65765;BMP180;52915;53.718;19.946;2023-04-25T04:22:11;99055.60;;;12.20
65765;BMP180;52915;53.718;19.946;2023-04-25T04:27:18;99056.20;;;12.30
65765;BMP180;52915;53.718;19.946;2023-04-25T04:32:27;99055.20;;;12.30
65765;BMP180;52915;53.718;19.946;2023-04-25T04:37:34;99062.60;;;12.30
65765;BMP180;52915;53.718;19.946;2023-04-25T04:43:12;99066.60;;;12.30
65765;BMP180;52915;53.718;19.946;2023-04-25T05:09:53;99060.00;;;12.30
65765;BMP180;52915;53.718;19.946;2023-04-25T05:14:57;99065.00;;;12.20
65765;BMP180;52915;53.718;19.946;2023-04-25T05:27:22;99066.00;;;12.20
65765;BMP180;52915;53.718;19.946;2023-04-25T05:39:33;99066.20;;;12.20
65765;BMP180;52915;53.718;19.946;2023-04-25T06:05:32;99062.40;;;12.50
65765;BMP180;52915;53.718;19.946;2023-04-25T06:17:45;99077.40;;;12.50
65765;BMP180;52915;53.718;19.946;2023-04-25T06:23:40;99079.60;;;12.50
65765;BMP180;52915;53.718;19.946;2023-04-25T06:28:43;99083.40;;;12.50
65765;BMP180;52915;53.718;19.946;2023-04-25T06:40:08;99091.40;;;12.50
65765;BMP180;52915;53.718;19.946;2023-04-25T06:45:33;99096.00;;;12.50
65765;BMP180;52915;53.718;19.946;2023-04-25T06:51:03;99091.00;;;12.60
65765;BMP180;52915;53.718;19.946;2023-04-25T06:56:43;99090.60;;;12.60
65765;BMP180;52915;53.718;19.946;2023-04-25T07:26:44;99122.80;;;11.90
65765;BMP180;52915;53.718;19.946;2023-04-25T07:32:14;99126.40;;;11.70
65765;BMP180;52915;53.718;19.946;2023-04-25T07:37:41;99134.60;;;11.60
65765;BMP180;52915;53.718;19.946;2023-04-25T07:43:35;99143.80;;;11.50
65765;BMP180;52915;53.718;19.946;2023-04-25T07:48:55;99149.20;;;11.50
65765;BMP180;52915;53.718;19.946;2023-04-25T07:54:24;99152.80;;;11.42
65765;BMP180;52915;53.718;19.946;2023-04-25T08:06:33;99169.40;;;11.64
65765;BMP180;52915;53.718;19.946;2023-04-25T08:12:03;99175.00;;;11.50
65765;BMP180;52915;53.718;19.946;2023-04-25T08:17:30;99178.20;;;11.50
65765;BMP180;52915;53.718;19.946;2023-04-25T08:22:59;99188.00;;;11.30
65765;BMP180;52915;53.718;19.946;2023-04-25T08:28:10;99195.00;;;11.20
65765;BMP180;52915;53.718;19.946;2023-04-25T08:33:39;99205.00;;;11.10
65765;BMP180;52915;53.718;19.946;2023-04-25T08:38:53;99211.20;;;11.10
65765;BMP180;52915;53.718;19.946;2023-04-25T08:44:23;99212.60;;;11.00
65765;BMP180;52915;53.718;19.946;2023-04-25T08:49:31;99216.40;;;10.80
65765;BMP180;52915;53.718;19.946;2023-04-25T08:54:42;99223.80;;;10.70
65765;BMP180;52915;53.718;19.946;2023-04-25T09:00:19;99230.60;;;10.70
65765;BMP180;52915;53.718;19.946;2023-04-25T09:11:44;99245.60;;;10.80
65765;BMP180;52915;53.718;19.946;2023-04-25T09:28:28;99259.60;;;10.90
65765;BMP180;52915;53.718;19.946;2023-04-25T09:34:09;99264.80;;;10.90
65765;BMP180;52915;53.718;19.946;2023-04-25T09:40:09;99269.60;;;10.90
65765;BMP180;52915;53.718;19.946;2023-04-25T09:45:14;99270.60;;;10.90
65765;BMP180;52915;53.718;19.946;2023-04-25T09:51:05;99275.40;;;10.90
65765;BMP180;52915;53.718;19.946;2023-04-25T09:56:11;99282.20;;;10.90
65765;BMP180;52915;53.718;19.946;2023-04-25T10:14:14;99284.60;;;11.00
65765;BMP180;52915;53.718;19.946;2023-04-25T10:19:36;99289.60;;;11.10
65765;BMP180;52915;53.718;19.946;2023-04-25T10:31:27;99309.20;;;11.00
65765;BMP180;52915;53.718;19.946;2023-04-25T10:36:32;99316.20;;;10.80
65765;BMP180;52915;53.718;19.946;2023-04-25T10:42:26;99313.60;;;10.80
65765;BMP180;52915;53.718;19.946;2023-04-25T10:47:44;99317.40;;;10.90
65765;BMP180;52915;53.718;19.946;2023-04-25T10:53:39;99319.20;;;11.04
65765;BMP180;52915;53.718;19.946;2023-04-25T10:59:10;99325.80;;;11.00
65765;BMP180;52915;53.718;19.946;2023-04-25T11:04:40;99328.80;;;10.90
65765;BMP180;52915;53.718;19.946;2023-04-25T11:10:03;99332.40;;;10.80
65765;BMP180;52915;53.718;19.946;2023-04-25T11:15:34;99335.20;;;10.60
65765;BMP180;52915;53.718;19.946;2023-04-25T11:21:03;99339.60;;;10.60
65765;BMP180;52915;53.718;19.946;2023-04-25T11:26:31;99345.80;;;10.50
65765;BMP180;52915;53.718;19.946;2023-04-25T11:38:06;99349.00;;;10.70
65765;BMP180;52915;53.718;19.946;2023-04-25T11:43:10;99352.40;;;10.80
65765;BMP180;52915;53.718;19.946;2023-04-25T11:48:40;99359.20;;;10.70
65765;BMP180;52915;53.718;19.946;2023-04-25T11:53:57;99355.40;;;10.80
65765;BMP180;52915;53.718;19.946;2023-04-25T12:05:47;99353.00;;;11.30
65765;BMP180;52915;53.718;19.946;2023-04-25T12:11:22;99349.60;;;11.60
65765;BMP180;52915;53.718;19.946;2023-04-25T12:22:48;99338.80;;;12.40
65765;BMP180;52915;53.718;19.946;2023-04-25T12:34:13;99354.00;;;12.82
65765;BMP180;52915;53.718;19.946;2023-04-25T12:46:01;99347.60;;;13.14
65765;BMP180;52915;53.718;19.946;2023-04-25T12:51:31;99339.40;;;13.30
65765;BMP180;52915;53.718;19.946;2023-04-25T12:56:57;99339.20;;;13.50
65765;BMP180;52915;53.718;19.946;2023-04-25T13:02:27;99344.40;;;13.40
65765;BMP180;52915;53.718;19.946;2023-04-25T13:13:41;99344.60;;;13.10
65765;BMP180;52915;53.718;19.946;2023-04-25T13:19:36;99351.00;;;13.10
65765;BMP180;52915;53.718;19.946;2023-04-25T13:37:32;99345.60;;;13.20
65765;BMP180;52915;53.718;19.946;2023-04-25T13:42:38;99339.80;;;13.32
65765;BMP180;52915;53.718;19.946;2023-04-25T13:48:34;99345.60;;;13.56
65765;BMP180;52915;53.718;19.946;2023-04-25T13:53:38;99348.00;;;13.60
65765;BMP180;52915;53.718;19.946;2023-04-25T13:58:43;99346.60;;;13.50
65765;BMP180;52915;53.718;19.946;2023-04-25T14:03:47;99346.80;;;13.30
65765;BMP180;52915;53.718;19.946;2023-04-25T14:16:09;99342.20;;;13.10
65765;BMP180;52915;53.718;19.946;2023-04-25T14:21:13;99349.40;;;12.90
65765;BMP180;52915;53.718;19.946;2023-04-25T14:26:17;99354.00;;;12.72
65765;BMP180;52915;53.718;19.946;2023-04-25T14:31:46;99349.40;;;12.60
65765;BMP180;52915;53.718;19.946;2023-04-25T14:36:52;99349.40;;;12.50
65765;BMP180;52915;53.718;19.946;2023-04-25T15:03:25;99375.80;;;12.10
65765;BMP180;52915;53.718;19.946;2023-04-25T15:08:37;99376.20;;;11.90
65765;BMP180;52915;53.718;19.946;2023-04-25T15:13:52;99378.00;;;11.80
65765;BMP180;52915;53.718;19.946;2023-04-25T15:25:51;99384.80;;;11.70
65765;BMP180;52915;53.718;19.946;2023-04-25T15:45:49;99379.40;;;11.20
65765;BMP180;52915;53.718;19.946;2023-04-25T15:51:14;99377.20;;;11.10
65765;BMP180;52915;53.718;19.946;2023-04-25T16:03:46;99379.00;;;10.90
65765;BMP180;52915;53.718;19.946;2023-04-25T16:22:40;99379.00;;;10.50
65765;BMP180;52915;53.718;19.946;2023-04-25T16:28:38;99386.40;;;10.40
65765;BMP180;52915;53.718;19.946;2023-04-25T16:33:51;99395.00;;;10.30
65765;BMP180;52915;53.718;19.946;2023-04-25T16:39:00;99392.60;;;10.10
65765;BMP180;52915;53.718;19.946;2023-04-25T16:44:07;99396.60;;;10.00
65765;BMP180;52915;53.718;19.946;2023-04-25T16:49:17;99401.00;;;9.90
65765;BMP180;52915;53.718;19.946;2023-04-25T16:54:29;99399.60;;;9.80
65765;BMP180;52915;53.718;19.946;2023-04-25T17:06:42;99414.20;;;9.70
65765;BMP180;52915;53.718;19.946;2023-04-25T17:11:51;99416.40;;;9.60
65765;BMP180;52915;53.718;19.946;2023-04-25T17:17:01;99415.00;;;9.58
65765;BMP180;52915;53.718;19.946;2023-04-25T17:22:34;99416.00;;;9.50
65765;BMP180;52915;53.718;19.946;2023-04-25T17:35:58;99424.40;;;9.40
65765;BMP180;52915;53.718;19.946;2023-04-25T17:41:12;99430.60;;;9.40
65765;BMP180;52915;53.718;19.946;2023-04-25T17:47:10;99432.20;;;9.30
65765;BMP180;52915;53.718;19.946;2023-04-25T17:52:21;99435.80;;;9.30
65765;BMP180;52915;53.718;19.946;2023-04-25T17:57:30;99440.00;;;9.30
65765;BMP180;52915;53.718;19.946;2023-04-25T18:09:28;99450.80;;;9.20
65765;BMP180;52915;53.718;19.946;2023-04-25T18:15:04;99462.80;;;9.20
65765;BMP180;52915;53.718;19.946;2023-04-25T18:20:15;99460.40;;;9.20
65765;BMP180;52915;53.718;19.946;2023-04-25T18:40:16;99490.20;;;9.00
65765;BMP180;52915;53.718;19.946;2023-04-25T18:45:28;99496.60;;;8.90
65765;BMP180;52915;53.718;19.946;2023-04-25T18:50:36;99509.60;;;8.80
65765;BMP180;52915;53.718;19.946;2023-04-25T18:56:22;99510.20;;;8.80
65765;BMP180;52915;53.718;19.946;2023-04-25T19:01:32;99519.40;;;8.80
65765;BMP180;52915;53.718;19.946;2023-04-25T19:06:43;99532.60;;;8.72
65765;BMP180;52915;53.718;19.946;2023-04-25T19:11:53;99535.00;;;8.70
65765;BMP180;52915;53.718;19.946;2023-04-25T19:17:07;99551.60;;;8.70
65765;BMP180;52915;53.718;19.946;2023-04-25T19:22:16;99567.80;;;8.70
65765;BMP180;52915;53.718;19.946;2023-04-25T19:27:22;99579.00;;;8.60
65765;BMP180;52915;53.718;19.946;2023-04-25T19:32:30;99586.00;;;8.60
65765;BMP180;52915;53.718;19.946;2023-04-25T19:37:39;99589.20;;;8.52
65765;BMP180;52915;53.718;19.946;2023-04-25T19:42:54;99593.80;;;8.50
65765;BMP180;52915;53.718;19.946;2023-04-25T19:56:18;99598.60;;;8.30
65765;BMP180;52915;53.718;19.946;2023-04-25T20:01:27;99601.40;;;8.20
65765;BMP180;52915;53.718;19.946;2023-04-25T20:26:17;99606.40;;;8.18
65765;BMP180;52915;53.718;19.946;2023-04-25T20:38:48;99597.60;;;8.10
65765;BMP180;52915;53.718;19.946;2023-04-25T20:44:51;99599.60;;;8.10
65765;BMP180;52915;53.718;19.946;2023-04-25T20:50:00;99607.20;;;8.02
65765;BMP180;52915;53.718;19.946;2023-04-25T20:55:56;99608.60;;;8.00
65765;BMP180;52915;53.718;19.946;2023-04-25T21:01:05;99602.20;;;7.98
65765;BMP180;52915;53.718;19.946;2023-04-25T21:21:11;99595.60;;;7.82
65765;BMP180;52915;53.718;19.946;2023-04-25T21:26:18;99596.60;;;7.80
65765;BMP180;52915;53.718;19.946;2023-04-25T21:31:49;99587.60;;;7.90
65765;BMP180;52915;53.718;19.946;2023-04-25T21:36:56;99582.40;;;7.90
65765;BMP180;52915;53.718;19.946;2023-04-25T21:42:03;99581.80;;;7.90
65765;BMP180;52915;53.718;19.946;2023-04-25T22:08:32;99588.60;;;8.10
65765;BMP180;52915;53.718;19.946;2023-04-25T22:20:57;99585.60;;;8.06
65765;BMP180;52915;53.718;19.946;2023-04-25T22:26:01;99583.00;;;8.08
65765;BMP180;52915;53.718;19.946;2023-04-25T22:38:07;99579.40;;;8.00
65765;BMP180;52915;53.718;19.946;2023-04-25T22:50:19;99587.40;;;7.90
65765;BMP180;52915;53.718;19.946;2023-04-25T22:55:23;99581.00;;;8.00
65765;BMP180;52915;53.718;19.946;2023-04-25T23:00:26;99581.20;;;7.96
65765;BMP180;52915;53.718;19.946;2023-04-25T23:05:32;99581.40;;;8.00
65765;BMP180;52915;53.718;19.946;2023-04-25T23:11:27;99578.00;;;7.90
65765;BMP180;52915;53.718;19.946;2023-04-25T23:16:31;99577.40;;;7.90
65765;BMP180;52915;53.718;19.946;2023-04-25T23:21:34;99570.40;;;7.80
65765;BMP180;52915;53.718;19.946;2023-04-25T23:26:40;99568.60;;;7.80
65765;BMP180;52915;53.718;19.946;2023-04-25T23:38:11;99574.20;;;7.80
65765;BMP180;52915;53.718;19.946;2023-04-25T23:43:16;99577.40;;;7.70
65765;BMP180;52915;53.718;19.946;2023-04-25T23:49:11;99574.40;;;7.68
65765;BMP180;52915;53.718;19.946;2023-04-25T23:54:14;99579.20;;;7.60
65765;BMP180;52915;53.718;19.946;2023-04-25T23:59:19;99581.60;;;7.50
